Latest Coastal Weather Observations for Gabo Island

IDT60701

Issued at 3:32 pm EST Friday 24 May 2019 (issued every 10 minutes, with the page automatically refreshed every 10 minutes)

About coastal observations | Map of coastal stations | Coastal observations for TAS | Marine services | Other Formats
Station Details ID: 084016 Name: GABO ISLAND LIGHTHOUSE Lat: -37.57 Lon: 149.92 Height: 15.2 m
Data from the previous 72 hours. | See also: Recent months at Gabo Island
Date/Time
EST
Wind Sea
Height
m
Swell Vis
km
Cloud Weather Temp
°C
Press
hPa
Rain since
9am
mm
Dir  Spd
kts
Gust
kts
Height
m
Period
s
Dir
24/03:30pm NNW 5 8 - - - - - - - 19.3 1017.7 0.0
24/03:00pm E 3 4 1 0.5 8 E 50 Mostly cloudy Fine 19.0 1017.5 0.0
24/02:30pm NW 8 11 - - - - - - - 20.1 1017.4 0.0
24/02:00pm NW 7 10 - - - - - - - 20.2 1017.3 0.0
24/01:30pm S 2 4 - - - - - - - 19.8 1017.3 0.0
24/01:00pm SE 1 4 - - - - - - - 18.6 1017.5 0.0
24/12:30pm E 3 5 - - - - - - - 18.3 1017.7 0.0
24/12:00pm ESE 3 4 - - - - - - - 17.6 1018.2 0.0
24/11:30am ENE 4 5 - - - - - - - 16.9 1018.7 0.0
24/11:00am SW 3 4 - - - - - - - 16.3 1019.1 0.0
24/10:30am CALM 0 4 - - - - - - - 16.1 1019.7 0.0
24/10:00am NW 3 5 - - - - - - - 15.5 1020.0 0.0
24/09:30am NNE 5 6 - - - - - - - 15.7 1020.1 0.0
24/09:00am NNE 4 6 1 0.5 6 E 40 Cloudy Fine 15.1 1020.1 0.0
24/08:30am WNW 7 9 - - - - - - - 14.0 1020.2 0.0
24/08:00am WSW 5 6 - - - - - - - 12.9 1020.1 0.0
24/07:30am WNW 3 7 - - - - - - - 12.3 1020.3 0.0
24/07:00am NNE 4 5 - - - - - - - 12.9 1020.0 0.0
24/06:30am NNW 5 7 - - - - - - - 12.4 1020.0 0.0
24/06:00am WNW 3 7 - - - - - - - 12.3 1020.1 0.0
24/05:30am NW 3 5 - - - - - - - 12.1 1019.8 0.0
24/05:00am NNW 5 6 - - - - - - - 11.5 1019.9 0.0
24/04:30am W 7 8 - - - - - - - 11.4 1019.9 0.0
24/04:00am NNE 7 8 - - - - - - - 10.9 1019.9 0.0
24/03:30am NE 1 5 - - - - - - - 12.2 1020.0 0.0
24/03:00am NW 5 8 1 0.6 8 E 30 Partly cloudy Fine 12.1 1020.6 0.0
24/02:30am ENE 4 6 - - - - - - - 12.5 1021.0 0.0
24/02:00am SSW 3 4 - - - - - - - 13.7 1021.3 0.0
24/01:30am W 1 4 - - - - - - - 12.9 1021.7 0.0
24/01:00am NE 1 4 - - - - - - - 13.3 1021.9 0.0
24/12:30am NE 5 7 - - - - - - - 12.8 1022.2 0.0
24/12:00am N 3 5 - - - - - - - 13.3 1022.8 0.0
 
Date/Time
EST
Wind Sea
Height
m
Swell Vis
km
Cloud Weather Temp
°C
Press
hPa
Rain since
9am
mm
Dir  Spd
kts
Gust
kts
Height
m
Period
s
Dir
23/11:30pm W 5 7 - - - - - - - 12.6 1023.1 0.0
23/11:00pm CALM 0 2 - - - - - - - 14.2 1023.1 0.0
23/10:30pm CALM 0 0 - - - - - - - 13.9 1023.3 0.0
23/10:00pm W 4 5 - - - - - - - 13.6 1023.6 0.0
23/09:30pm NNW 4 4 - - - - - - - 14.0 1023.9 0.0
23/09:00pm NNE 5 6 1 0.6 8 E 30 Mostly clear Fine 13.0 1023.9 0.0
23/08:30pm N 5 6 - - - - - - - 13.1 1024.2 0.0
23/08:00pm N 8 10 - - - - - - - 13.5 1024.2 0.0
23/07:30pm NNE 8 10 - - - - - - - 14.3 1024.3 0.0
23/07:00pm N 8 10 - - - - - - - 14.1 1024.1 0.0
23/06:30pm NNE 7 8 - - - - - - - 14.6 1023.9 0.0
23/06:00pm N 7 7 - - - - - - - 13.9 1023.9 0.0
23/05:30pm NNE 6 8 - - - - - - - 15.9 1024.0 0.0
23/05:00pm NE 6 7 - - - - - - - 15.7 1024.0 0.0
23/04:30pm NE 5 8 - - - - - - - 16.8 1024.0 0.0
23/04:00pm NE 5 6 - - - - - - - 17.7 1024.2 0.0
23/03:30pm NNE 4 5 - - - - - - - 18.3 1024.2 0.0
23/03:00pm ENE 4 5 1 0.5 10 SE 50 Mostly clear Fine 18.4 1024.3 0.0
23/02:30pm E 4 5 - - - - - - - 18.4 1024.4 0.0
23/02:00pm ESE 4 5 - - - - - - - 18.5 1024.7 0.0
23/01:30pm S 5 6 - - - - - - - 17.6 1024.9 0.0
23/01:00pm S 4 5 - - - - - - - 17.7 1025.3 0.0
23/12:30pm SSW 4 5 - - - - - - - 17.1 1025.7 0.0
23/12:00pm S 2 4 - - - - - - - 17.6 1026.2 0.0
23/11:30am SW 4 5 - - - - - - - 16.6 1026.7 0.0
23/11:00am SSW 3 4 - - - - - - - 16.0 1027.2 0.0
23/10:30am SW 4 5 - - - - - - - 15.2 1027.7 0.0
23/10:00am WSW 4 6 - - - - - - - 15.2 1027.8 0.0
23/09:30am SW 3 6 - - - - - - - 15.5 1027.9 0.0
23/09:00am CALM 0 0 1 0.5 10 SE 40 Mostly clear Fine 15.9 1027.8 0.0
23/08:30am WNW 5 6 - - - - - - - 14.1 1027.9 0.0
23/08:00am WNW 6 7 - - - - - - - 12.8 1027.8 0.0
23/07:30am NW 4 4 - - - - - - - 12.9 1027.6 0.0
23/07:00am CALM 0 1 - - - - - - - 12.2 1027.4 0.0
23/06:30am WNW 3 5 - - - - - - - 12.0 1027.4 0.0
23/06:00am W 5 6 - - - - - - - 11.3 1027.3 0.0
23/05:30am WNW 3 4 - - - - - - - 12.6 1027.2 0.0
23/05:00am CALM 0 0 - - - - - - - 13.2 1027.2 0.0
23/04:30am CALM 0 0 - - - - - - - 12.4 1027.3 0.0
23/04:00am NW 3 3 - - - - - - - 13.0 1027.2 0.0
23/03:30am WNW 3 5 - - - - - - - 12.8 1027.4 0.0
23/03:00am WNW 2 6 1 0.5 8 SE 30 Clear Fine 12.7 1027.6 0.0
23/02:30am CALM 0 0 - - - - - - - 13.3 1027.7 0.0
23/02:00am N 3 3 - - - - - - - 13.6 1027.8 0.0
23/01:30am CALM 0 0 - - - - - - - 13.5 1028.0 0.0
23/01:00am WNW 2 4 - - - - - - - 12.3 1028.1 0.0
23/12:30am W 5 6 - - - - - - - 12.2 1028.2 0.0
23/12:00am W 6 6 - - - - - - - 11.7 1028.4 0.0
 
Date/Time
EST
Wind Sea
Height
m
Swell Vis
km
Cloud Weather Temp
°C
Press
hPa
Rain since
9am
mm
Dir  Spd
kts
Gust
kts
Height
m
Period
s
Dir
22/11:30pm W 5 6 - - - - - - - 11.9 1028.4 0.0
22/11:00pm WNW 5 5 - - - - - - - 13.1 1028.5 0.0
22/10:30pm W 4 4 - - - - - - - 12.9 1028.7 0.0
22/10:00pm N 6 7 - - - - - - - 13.2 1028.8 0.0
22/09:30pm N 6 7 - - - - - - - 13.6 1028.7 0.0
22/09:00pm N 6 7 1 0.5 8 SE 35 Mostly clear Fine 13.5 1028.7 0.0
22/08:30pm N 7 8 - - - - - - - 13.5 1028.6 0.0
22/08:00pm N 7 8 - - - - - - - 13.3 1028.5 0.0
22/07:30pm N 7 8 - - - - - - - 13.9 1028.5 0.0
22/07:00pm N 7 8 - - - - - - - 13.8 1028.5 0.0
22/06:30pm N 7 8 - - - - - - - 13.5 1028.2 0.0
22/06:00pm N 7 7 - - - - - - - 13.8 1028.2 0.0
22/05:30pm NNE 6 8 - - - - - - - 14.2 1027.9 0.0
22/05:00pm NNE 7 8 - - - - - - - 16.4 1027.7 0.0
22/04:30pm NE 8 9 - - - - - - - 16.7 1027.7 0.0
22/04:00pm NE 7 7 - - - - - - - 17.3 1027.6 0.0
22/03:30pm NE 7 8 - - - - - - - 17.8 1027.5 0.0
22/03:00pm ENE 5 6 1 0.5 8 SE 50 Mostly clear Fine 18.1 1027.5 0.0
22/02:30pm ESE 3 4 - - - - - - - 18.6 1027.5 0.0
22/02:00pm SSE 4 5 - - - - - - - 18.4 1027.4 0.0
22/01:30pm SSE 3 4 - - - - - - - 18.4 1027.4 0.0
22/01:00pm SSW 4 5 - - - - - - - 18.6 1027.6 0.0
22/12:30pm SW 5 5 - - - - - - - 18.5 1027.8 0.0
22/12:00pm WSW 4 5 - - - - - - - 18.6 1028.0 0.0
22/11:30am W 5 6 - - - - - - - 18.8 1028.3 0.0
22/11:00am WNW 6 7 - - - - - - - 18.4 1028.5 0.0
22/10:30am WNW 6 8 - - - - - - - 18.2 1028.6 0.0
22/10:00am NW 7 9 - - - - - - - 17.7 1028.6 0.0
22/09:30am NW 8 9 - - - - - - - 16.7 1028.5 0.0
22/09:00am WNW 8 9 1 0.8 10 S 40 Mostly clear Fine 15.8 1028.4 0.0
22/08:30am WNW 8 9 - - - - - - - 14.6 1028.3 0.0
22/08:00am WNW 8 9 - - - - - - - 13.9 1028.1 0.0
22/07:30am WNW 8 9 - - - - - - - 13.3 1027.8 0.0
22/07:00am WNW 8 9 - - - - - - - 13.7 1027.5 0.0
22/06:30am NW 9 9 - - - - - - - 13.8 1027.2 0.0
22/06:00am WNW 9 9 - - - - - - - 13.3 1026.8 0.0
22/05:30am WNW 8 9 - - - - - - - 13.3 1026.5 0.0
22/05:00am NW 8 9 - - - - - - - 14.2 1026.3 0.0
22/04:30am NW 7 9 - - - - - - - 14.2 1026.1 0.0
22/04:00am NW 8 9 - - - - - - - 14.2 1026.0 0.0
22/03:30am NW 8 9 - - - - - - - 14.1 1026.0 0.0
22/03:00am WNW 7 9 1 0.9 9 S 30 Mostly cloudy Fine 13.7 1026.0 0.0
22/02:30am WNW 7 8 - - - - - - - 13.8 1025.8 0.0
22/02:00am WNW 8 8 - - - - - - - 13.9 1025.8 0.0
22/01:30am WNW 7 8 - - - - - - - 14.5 1025.5 0.0
22/01:00am WNW 7 8 - - - - - - - 14.9 1025.5 0.0
22/12:30am NW 7 9 - - - - - - - 15.0 1025.6 0.0
22/12:00am NW 8 9 - - - - - - - 14.9 1025.7 0.0
 
Date/Time
EST
Wind Sea
Height
m
Swell Vis
km
Cloud Weather Temp
°C
Press
hPa
Rain since
9am
mm
Dir  Spd
kts
Gust
kts
Height
m
Period
s
Dir
21/11:30pm NW 7 8 - - - - - - - 14.8 1025.6 0.0
21/11:00pm NW 7 8 - - - - - - - 15.1 1025.6 0.0
21/10:30pm WNW 7 8 - - - - - - - 14.5 1025.4 0.0
21/10:00pm WNW 7 8 - - - - - - - 14.9 1025.3 0.0
21/09:30pm WNW 7 8 - - - - - - - 15.3 1025.3 0.0
21/09:00pm NW 7 9 1 0.9 9 S 30 Cloudy Fine 15.2 1025.1 0.0
21/08:30pm NW 7 8 - - - - - - - 14.8 1025.0 0.0
21/08:00pm NW 7 9 - - - - - - - 14.7 1024.9 0.0
21/07:30pm NW 6 7 - - - - - - - 14.6 1024.7 0.0
21/07:00pm W 7 8 - - - - - - - 14.9 1024.5 0.0
21/06:30pm WSW 8 10 - - - - - - - 16.1 1024.2 0.0
21/06:00pm SW 8 9 - - - - - - - 16.1 1023.9 0.0
21/05:30pm SW 9 10 - - - - - - - 16.4 1023.5 0.0
21/05:00pm SW 8 9 - - - - - - - 16.6 1023.2 0.0
21/04:30pm SW 8 9 - - - - - - - 16.7 1023.1 0.0
21/04:00pm SSW 9 11 - - - - - - - 16.8 1023.0 0.0

Other formats

Comma delimited format used in spreadsheet applications
http://www.bom.gov.au/fwo/IDT60701/IDT60701.94933.axf

JavaScript Object Notation format (JSON) in row-major order
http://www.bom.gov.au/fwo/IDT60701/IDT60701.94933.json

Data quality

Most of these data are generated automatically and are frequently updated. Quality checks on data are not normally performed. It is possible for incorrect values to appear. Refer to information at About Latest Weather Observations and please check the disclaimer before using these data.